createdAt,value
2023-04-17T00:01:32.832Z,979.19
2023-04-17T00:13:33.282Z,979.06
2023-04-17T00:25:33.713Z,979.02
2023-04-17T00:37:34.174Z,978.98
2023-04-17T00:49:35.034Z,978.89
2023-04-17T01:01:35.131Z,978.83
2023-04-17T01:13:35.547Z,978.72
2023-04-17T01:25:36.039Z,978.70
2023-04-17T01:37:36.415Z,978.59
2023-04-17T01:49:36.870Z,978.54
2023-04-17T02:01:37.443Z,978.48
2023-04-17T02:13:37.824Z,978.52
2023-04-17T02:25:38.249Z,978.38
2023-04-17T02:37:38.685Z,978.49
2023-04-17T02:49:39.140Z,978.34
2023-04-17T03:01:39.659Z,978.43
2023-04-17T03:13:40.061Z,978.39
2023-04-17T03:25:40.550Z,978.47
2023-04-17T03:37:40.965Z,978.52
2023-04-17T03:49:41.477Z,978.51
2023-04-17T04:01:41.849Z,978.53
2023-04-17T04:13:42.304Z,978.61
2023-04-17T04:25:42.823Z,978.68
2023-04-17T04:37:43.240Z,978.72
2023-04-17T04:49:43.760Z,978.73
2023-04-17T05:01:44.251Z,978.83
2023-04-17T05:13:44.580Z,978.65
2023-04-17T05:25:45.075Z,978.77
2023-04-17T05:37:45.551Z,978.77
2023-04-17T05:49:45.979Z,978.85
2023-04-17T06:01:46.448Z,978.72
2023-04-17T06:13:46.947Z,978.77
2023-04-17T06:25:47.274Z,978.87
2023-04-17T06:37:47.774Z,978.93
2023-04-17T06:49:48.195Z,978.91
2023-04-17T07:01:48.677Z,979.00
2023-04-17T07:13:49.104Z,978.98
2023-04-17T07:25:49.613Z,978.91
2023-04-17T07:37:49.992Z,979.01
2023-04-17T07:49:50.507Z,979.14
2023-04-17T08:01:50.987Z,979.18
2023-04-17T08:13:51.364Z,979.08
2023-04-17T08:25:51.816Z,979.15
2023-04-17T08:37:52.286Z,979.01
2023-04-17T08:49:52.716Z,979.08
2023-04-17T09:01:53.266Z,978.95
2023-04-17T09:13:53.635Z,978.84
2023-04-17T09:25:54.152Z,978.85
2023-04-17T09:37:54.522Z,978.90
2023-04-17T09:49:54.982Z,978.84
2023-04-17T10:22:26.663Z,978.62
2023-04-17T10:34:27.138Z,978.59
2023-04-17T10:46:27.665Z,978.68
2023-04-17T10:58:31.662Z,978.37
2023-04-17T11:10:28.524Z,978.34
2023-04-17T11:22:28.953Z,978.40
2023-04-17T11:34:29.422Z,978.19
2023-04-17T11:46:29.985Z,978.38
2023-04-17T11:58:30.471Z,978.41
2023-04-17T12:10:30.792Z,978.38
2023-04-17T12:22:31.249Z,978.36
2023-04-17T12:34:31.690Z,978.40
2023-04-17T12:46:32.154Z,978.07
2023-04-17T13:08:48.234Z,978.11
2023-04-17T13:20:48.713Z,977.87
2023-04-17T13:32:49.197Z,977.89
2023-04-17T13:44:49.590Z,977.79
2023-04-17T13:56:50.038Z,977.65
2023-04-17T14:08:50.533Z,977.51
2023-04-17T14:20:50.920Z,977.53
2023-04-17T14:32:51.403Z,977.60
2023-04-17T14:44:51.849Z,977.52
2023-04-17T14:56:52.335Z,977.41
2023-04-17T15:08:52.831Z,977.53
2023-04-17T15:20:53.202Z,977.51
2023-04-17T15:32:53.697Z,977.56
2023-04-17T15:44:54.144Z,977.51
2023-04-17T15:56:54.554Z,977.58
2023-04-17T16:08:55.039Z,977.57
2023-04-17T16:20:55.532Z,977.64
2023-04-17T16:32:55.995Z,977.67
2023-04-17T16:44:56.403Z,977.95
2023-04-17T16:56:56.859Z,977.78
2023-04-17T17:08:57.309Z,978.04
2023-04-17T17:20:57.757Z,978.09
2023-04-17T17:32:58.196Z,978.22
2023-04-17T17:44:58.670Z,978.09
2023-04-17T17:56:59.123Z,978.23
2023-04-17T18:08:59.594Z,978.22
2023-04-17T18:21:00.033Z,978.45
2023-04-17T18:33:00.618Z,978.58
2023-04-17T18:45:00.982Z,978.60
2023-04-17T18:57:01.490Z,978.71
2023-04-17T19:09:01.829Z,978.76
2023-04-17T19:21:02.311Z,978.90
2023-04-17T19:33:02.784Z,978.90
2023-04-17T19:45:03.204Z,978.81
2023-04-17T19:57:03.635Z,978.80
2023-04-17T20:09:04.086Z,978.77
2023-04-17T20:21:04.559Z,978.78
2023-04-17T20:33:05.495Z,978.83
2023-04-17T20:45:05.446Z,978.98
2023-04-17T20:57:05.935Z,979.17
2023-04-17T21:09:06.400Z,978.99
2023-04-17T21:21:06.847Z,978.94
2023-04-17T21:33:07.267Z,978.96
2023-04-17T21:45:07.745Z,978.93
2023-04-17T21:57:08.191Z,978.92
2023-04-17T22:09:08.696Z,978.94
2023-04-17T22:21:09.082Z,978.90
2023-04-17T22:33:09.520Z,979.01
2023-04-17T22:45:10.020Z,978.91
2023-04-17T22:57:10.493Z,978.89
2023-04-17T23:09:10.907Z,978.77
2023-04-17T23:21:11.357Z,978.73
2023-04-17T23:33:11.789Z,978.65
2023-04-17T23:45:12.302Z,978.54
2023-04-17T23:57:12.703Z,978.46
